Flight Track Log - Related Links

Times and Time Zones

All times are in EDT time to prevent confusion due to time zone crossing. See the ASQ4633 flight status page for this flight to view local times or setup timezone preferences in your user account.

Time Position Orientation Groundspeed Altitude Reporting Facility
EDT Latitude Longitude Course Direction KTS MPH feet Rate Location/Type
Tue 03:46:38 PM 44.3489 -73.1194 193° South 234 269 6,600  Level Boston Center
Tue 03:47:38 PM 44.2800 -73.1506 198° South 249 287 9,500 2,250 Climbing Boston Center
Tue 03:48:00 PM 44.1375 -73.2656 190° South  Level FlightAware Approximate
Tue 03:48:38 PM 44.2028 -73.1844 197° South 271 312 11,100  Level Boston Center
Tue 03:49:00 PM 44.0539 -73.2885 196° South  Level FlightAware Approximate
Tue 03:49:38 PM 44.1044 -73.2264 197° South 324 373 12,900  Level Boston Center
Tue 03:50:00 PM 43.9719 -73.3213 196° South  Level FlightAware Approximate
Tue 03:50:38 PM 44.0125 -73.2656 197° South 346 398 14,700  Level Boston Center
Tue 03:51:38 PM 43.9164 -73.3075 197° South 356 410 16,300 1,600 Climbing Boston Center
Tue 03:52:38 PM 43.8222 -73.3494 198° South 361 415 17,900 1,450 Climbing Boston Center
Tue 03:53:38 PM 43.7219 -73.3911 197° South 366 421 19,200 1,250 Climbing Boston Center
Tue 03:54:38 PM 43.6300 -73.4297 197° South 372 428 20,400 1,150 Climbing Boston Center
Tue 03:55:38 PM 43.5461 -73.4656 197° South 386 444 21,500 800 Climbing Boston Center
Tue 03:56:38 PM 43.4144 -73.5178 196° South 400 460 22,000 250 Climbing Boston Center
Tue 03:57:38 PM 43.2992 -73.5697 198° South 421 484 22,000  Level Boston Center
Tue 03:58:38 PM 43.1800 -73.6189 197° South 433 498 22,000 -750 Level Boston Center
Tue 03:59:38 PM 43.0522 -73.6761 198° South 447 514 20,500 -1,700 Descending Boston Center
Tue 04:00:38 PM 42.9414 -73.7219 197° South 441 507 18,600 -1,750 Descending Boston Center
Tue 04:01:38 PM 42.8386 -73.7681 198° South 412 474 17,000 -1,300 Descending Boston Center
Tue 04:02:38 PM 42.7339 -73.8139 198° South 405 466 16,000 -500 Descending Boston Center
Tue 04:03:38 PM 42.6311 -73.8594 198° South 405 466 16,000  Level Boston Center
Tue 04:04:38 PM 42.5328 -73.8997 197° South 405 466 16,000  Level Boston Center
Tue 04:05:38 PM 42.4194 -73.9503 198° South 405 466 16,000  Level Boston Center
Tue 04:06:38 PM 42.3231 -73.9931 198° South 410 472 16,000  Level Boston Center
Tue 04:07:38 PM 42.2078 -74.0433 198° South 405 466 16,000  Level Boston Center
Tue 04:08:38 PM 42.1133 -74.0828 197° South 405 466 16,000  Level Boston Center
Tue 04:09:38 PM 42.0086 -74.1306 199° South 405 466 16,000 -500 Level Boston Center
Tue 04:10:38 PM 41.8953 -74.1806 198° South 405 466 15,000 -1,250 Descending Boston Center
Tue 04:11:38 PM 41.8028 -74.2197 198° South 400 460 13,500 -1,650 Descending Boston Center
Tue 04:12:38 PM 41.7042 -74.2642 199° South 364 419 11,700 -1,650 Descending Boston Center
Tue 04:13:38 PM 41.6308 -74.2953 198° South 321 369 10,200 -1,600 Descending Boston Center
Tue 04:14:38 PM 41.5489 -74.3319 199° South 290 334 8,500 -1,120 Descending Boston Center
Tue 04:16:24 PM 41.4167 -74.3833 196° South 268 308 7,100 -506 Descending New York TRACON
Tue 04:17:24 PM 41.3500 -74.4167 201° Southwest 264 304 7,100  Level New York TRACON
Tue 04:18:24 PM 41.2833 -74.4500 201° Southwest 266 306 7,100  Level New York TRACON
Tue 04:19:24 PM 41.2167 -74.4833 201° Southwest 269 310 7,100  Level New York TRACON
Tue 04:20:24 PM 41.1333 -74.5000 189° South 267 307 7,100 -250 Level New York TRACON
Tue 04:21:24 PM 41.0667 -74.5167 191° South 265 305 6,600 -500 Descending New York TRACON
Tue 04:22:24 PM 41.0000 -74.5167 180° South 260 299 6,100 -700 Descending New York TRACON
Tue 04:23:24 PM 40.9667 -74.4500 123° Southeast 247 284 5,200 -500 Descending New York TRACON
Tue 04:24:24 PM 40.9667 -74.3500 90° East 243 280 5,100 -500 Descending New York TRACON
Tue 04:25:24 PM 40.9333 -74.2667 118° Southeast 239 275 4,200 -550 Descending New York TRACON
Tue 04:26:24 PM 40.9000 -74.2000 123° Southeast 228 262 4,000 -316 Descending New York TRACON
Tue 04:27:18 PM 40.8833 -74.1333 108° East 213 245 3,600 -444 Descending New York TRACON

Login

Don't have an account? Register now (free) for customized features, flight alerts, and more!